• Join FlightAware (Why Join?)
  • Login
  • US Flag 
Rudolph Flight #1: Arrived! 
06:14AM EST


 

Airport Tracker/Info


-or-


 

Live Flight TrackerFlight Track Log ✈ LYM752 ✈ 15-Aug-2013 ✈ KCBK - KDEN

Flight Track Log - Related Links

Times and Time Zones

All times are in EDT time to prevent confusion due to time zone crossing. See the LYM752 flight status page for this flight to view local times or setup timezone preferences in your user account.

Time Position Orientation Groundspeed Altitude Reporting Facility
EDT Latitude Longitude Course Direction KTS MPH feet Rate Location/Type
10:32AM 39.4747 -101.4025 282° West 124 143 10,000  Level Denver Center
10:34AM 39.4792 -101.4531 277° West 140 161 10,000  Level Denver Center
10:35AM 39.4897 -101.5211 281° West 166 191 10,000  Level Denver Center
10:36AM 39.4992 -101.5783 282° West 170 196 10,100  Climbing Denver Center
10:37AM 39.5064 -101.6464 278° West 171 197 10,000 -60 Descending Denver Center
10:38AM 39.4632 -101.3289 282° West  Level FlightAware Approximate
10:38AM 39.5122 -101.7028 278° West 169 194 10,000  Level Denver Center
10:39AM 39.5211 -101.7708 280° West 169 194 10,000  Level Denver Center
10:40AM 39.5269 -101.8278 278° West 169 194 10,100  Climbing Denver Center
10:41AM 39.5328 -101.8828 278° West 166 191 10,100 -240 Level Denver Center
10:42AM 39.5467 -101.9481 285° West 165 190 9,700 -60 Descending Denver Center
10:43AM 39.5556 -102.0058 281° West 163 188 10,000 120 Climbing Denver Center
10:44AM 39.5578 -102.0683 273° West 164 189 10,000  Level Denver Center
10:45AM 39.5675 -102.1236 283° West 164 189 10,000  Level Denver Center
10:46AM 39.5753 -102.1883 279° West 164 189 10,000  Level Denver Center
10:47AM 39.5847 -102.2450 282° West 166 191 10,000  Level Denver Center
10:48AM 39.5917 -102.2925 281° West 168 193 10,000  Level Denver Center
10:49AM 39.6042 -102.3686 282° West 168 193 10,000  Level Denver Center
10:50AM 39.6128 -102.4272 281° West 166 191 10,000  Level Denver Center
10:51AM 39.6189 -102.4886 277° West 169 194 10,000  Level Denver Center
10:52AM 39.6189 -102.5492 270° West 169 194 10,000  Level Denver Center
10:53AM 39.6250 -102.6206 276° West 168 193 10,000  Level Denver Center
10:54AM 39.6372 -102.6844 284° West 170 196 10,000  Level Denver Center
10:55AM 39.6464 -102.7433 281° West 175 201 10,000  Level Denver Center
10:56AM 39.6561 -102.8050 282° West 175 201 10,000  Level Denver Center
10:57AM 39.6606 -102.8539 277° West 174 200 10,000  Level Denver Center
10:58AM 39.6694 -102.9372 278° West 169 194 10,000  Level Denver Center
10:59AM 39.6742 -103.0000 276° West 173 199 10,000  Level Denver Center
11:00AM 39.6822 -103.0600 280° West 169 194 10,000  Level Denver Center
11:01AM 39.6894 -103.1200 279° West 169 194 10,000  Level Denver Center
11:02AM 39.6958 -103.1792 278° West 168 193 10,100  Climbing Denver Center
11:04AM 39.7031 -103.2386 279° West 167 192 10,100  Level Denver Center
11:05AM 39.7111 -103.3111 278° West 169 194 10,100  Level Denver Center
11:06AM 39.7175 -103.3717 278° West 170 196 10,100  Level Denver Center
11:07AM 39.7244 -103.4325 278° West 170 196 10,100  Level Denver Center
11:08AM 39.7314 -103.4928 279° West 170 196 10,100  Level Denver Center
11:09AM 39.7369 -103.5533 277° West 169 194 10,100  Level Denver Center
11:10AM 39.7436 -103.6133 278° West 169 194 10,100  Level Denver Center
11:11AM 39.7533 -103.6864 280° West 170 196 10,100  Level Denver Center
11:12AM 39.7667 -103.7450 287° West 171 197 10,100 -180 Level Denver Center
11:13AM 39.7942 -103.8058 300° West 179 206 9,800 -540 Descending Denver Center
11:14AM 39.8158 -103.8689 294° West 190 219 9,100 -780 Descending Denver Center
11:15AM 39.8378 -103.9353 293° West 199 229 8,300 -540 Descending Denver Center
11:16AM 39.8625 -104.0017 296° West 191 220 8,100 -120 Descending Denver Center
11:17AM 39.8711 -104.0517 283° West 173 199 8,100  Level Denver Center
11:18AM 39.8678 -104.1283 267° West 172 198 8,100  Level Denver Center
11:19AM 39.8717 -104.1900 275° West 170 196 8,100  Level Denver Center
11:20AM 39.8722 -104.2581 271° West 174 200 8,100  Level Denver Center
11:21AM 39.8742 -104.3208 272° West 173 199 8,100  Level Denver Center
11:22AM 39.8833 -104.3833 281° West 175 201 8,100 -60 Level Denver TRACON
11:23AM 39.8667 -104.4500 252° West 179 206 8,000 -420 Descending Denver TRACON
11:24AM 39.8761 -104.5131 281° West 168 193 7,200 -900 Descending Denver Center
11:25AM 39.8833 -104.5667 280° West 147 169 6,300 -960 Descending Denver TRACON
11:26AM 39.8833 -104.6167 270° West 145 167 5,500 -420 Descending Denver TRACON
11:27AM 39.8778 -104.6675 262° West 144 166 5,400 -120 Descending Denver Center
11:29AM 39.8617 -104.6732 247° West  Level Estimated
11:36AM 39.8617 -104.6732 247° West  Level Estimated
11:37AM 39.8617 -104.6732 247° West  Level Estimated